en  de  es  pl  it  ru

Highscore

beigetable

POI Feature Latitude Longitude Date
Mings Oriental Take AwayFast Food51.6276-0.7135892018-10-02 20:14:03
Starlight StoresConvenience51.6489-0.7750082018-09-22 22:18:32
Benjamin Disraeli's graveMemorial51.6519-0.751882018-09-11 20:56:32
The King's HeadPub51.8168-0.8135752018-09-09 23:57:21
The ObeliskMonument51.7872-0.6497332018-09-03 19:25:58
King George VPub51.6161-0.712632018-08-26 00:18:24
The Junction Pub and KitchenPub51.6197-0.7177042018-08-26 00:18:24
Youngs Thai and Chinese TakeawayFast Food51.6207-0.7203282018-08-26 00:18:24
Amersham MuseumMuseum51.6669-0.6182632018-08-20 22:44:08
3D Plastic CentresHardware51.6212-0.7237552018-08-20 00:35:58
Plumb CentreHardware51.6214-0.7233382018-08-20 00:35:57
SpeedyHardware51.6234-0.7316942018-08-20 00:35:57
Mr Clutch Auto CentreCar Repair51.6213-0.7229362018-08-20 00:35:57
The Bees Knees Sandwich BarCafe51.6232-0.7287942018-08-20 00:35:57
CTD TilesHardware51.6212-0.7226042018-08-20 00:35:57
Just Nails51.6207-0.7201082018-08-20 00:35:57
London Road CyclesBicycle51.6215-0.7207852018-08-20 00:35:57
Resister CarpetsCarpet51.6206-0.719442018-08-20 00:35:57
HighQualityLighting.co.ukFurniture51.6211-0.7235122018-08-20 00:35:56
Cheema News And Off Licence51.6206-0.7199392018-08-20 00:35:56
Hawes BarberHairdresser51.6207-0.7203892018-08-20 00:35:56
High Wycombe Sea CadetsSocial Centre51.6235-0.7319062018-08-20 00:35:56
WickesDoityourself51.6186-0.720222018-08-20 00:35:56
Eclipse Professional Hair And Beauty SuppliesHairdresser51.621-0.7234182018-08-20 00:35:56
Home TilesHardware51.6213-0.7228192018-08-20 00:35:56
Johnstones Decorating CentreHardware51.6213-0.7230792018-08-20 00:35:56
Furniture VillageFurniture51.6187-0.7192612018-08-20 00:35:55
CurrysElectronics51.6188-0.718432018-08-20 00:35:55
ArgosDepartment Store51.6186-0.7198182018-08-20 00:35:55
HalfordsCar Parts51.6179-0.7144812018-08-02 12:24:03
The Resolute CafeCafe51.5689-0.7750692018-08-02 12:24:02
Co-opConvenience51.7998-0.659452018-07-25 20:21:36
Kings ArmsPub51.7914-0.6657272018-07-25 20:21:35
Garrard StreetParking51.458-0.9734092018-07-16 19:22:09
The CoachRestaurant51.5717-0.7771262018-07-11 23:09:28
Peri PeriFast Food51.6325-0.7642472018-07-04 19:46:13
Biedronka Fresh DeliConvenience51.6318-0.7618822018-07-04 19:46:13
Computer GalleryComputer51.6319-0.7621292018-07-04 19:46:13
Rockit HairHairdresser51.6315-0.7604482018-07-03 00:58:16
Hospital of Saint John The BaptistRuins51.6276-0.7441932018-07-03 00:58:15
Christian Science ChurchPlace Of Worship51.6232-0.7340322018-07-03 00:58:15
One4SixCafe51.6298-0.745992018-07-03 00:58:13
M&S Simply FoodConvenience51.5876-0.6278172018-06-24 22:38:23
Beaconsfield Household Waste and Recycling CentreRecycling51.5979-0.6133452018-06-22 19:07:55
Thame United Football ClubSports Centre51.7553-0.9751982018-06-17 15:24:34
WH SmithNewsagent51.8173-0.8114282018-06-16 15:46:40
Nando'sRestaurant51.8157-0.810732018-06-16 15:46:40
Aylesbury MosquePlace Of Worship51.8214-0.810332018-06-16 15:46:38
Alfred Rose Park Community CentreCommunity Centre51.825-0.810312018-06-16 15:46:38
Buckingham BikesBicycle51.8182-0.8136482018-06-08 19:48:17
Aylesbury Bus StationBus Station51.815-0.8129672018-06-08 19:48:14
CoOp Post officePost Office51.8042-0.8578122018-06-03 19:55:51
Hot NutsDeli51.5758-0.09867312018-06-01 23:50:06
SubwayFast Food51.5764-0.09765592018-06-01 23:50:06
CostaCafe51.5765-0.09766542018-06-01 23:50:03
Thame Post OfficePost Office51.7474-0.9787512018-05-29 16:42:23
Trinity United Reform ChurchPlace Of Worship51.6272-0.743222018-05-21 22:38:51
HobbycraftCraft51.6189-0.7208812018-05-20 19:44:09
Pets At HomePet51.6188-0.7208382018-05-20 19:44:09
Free Methodist ChurchPlace Of Worship51.6182-0.7177182018-05-20 19:44:09
Ryemead PharmacyPharmacy51.6192-0.7210932018-05-20 19:44:09
Pann Mill Pumping StationWater Works51.627-0.7446732018-05-20 14:43:45
Ace Point Travel LtdTravel Agency51.6299-0.7422592018-05-20 14:43:45
Majestic Wine WarehouseAlcohol51.6254-0.7353882018-05-20 14:43:45
Perry's FordCar51.6255-0.7349052018-05-20 14:43:45
Kwik FitTyres51.6258-0.7362022018-05-20 14:43:44
Citygate VolkswagenCar51.6255-0.7373822018-05-20 14:43:44
The Rose And CrownPub51.6304-0.757682018-05-20 00:16:13
Peking HouseFast Food51.6299-0.7423132018-05-20 00:16:13
Monkey Puzzle Day NurseryKindergarten51.6278-0.7447622018-05-20 00:16:13
North Town General StoreConvenience51.6296-0.7421582018-05-20 00:16:13
Eat ThaiRestaurant51.6281-0.7465672018-05-20 00:16:13
Dansak ZoneFast Food51.6299-0.7424272018-05-20 00:16:13
ChutneyRestaurant51.6278-0.7450542018-05-20 00:16:12
The Sausage TreePub51.6281-0.7422692018-05-20 00:16:11
High Wycombe Lawn Tennis ClubSports Centre51.6236-0.7327982018-05-20 00:16:11
The PheasantPub51.6256-0.7358322018-05-20 00:16:11
Noodle NationRestaurant51.6287-0.7512012018-05-19 16:25:08
Wycombe NewsNewsagent51.6297-0.7426852018-05-19 16:25:07
Thai PalmFast Food51.6298-0.7421222018-05-19 16:25:06
Mr Scissor Gentleman's BarberHairdresser51.6299-0.7425172018-05-19 16:25:06
George and DragonPub51.569-0.773672018-05-16 17:54:03
Prince of WalesPub51.5703-0.7711482018-05-16 17:54:02
The Two BrewersPub51.5686-0.7719182018-05-16 17:54:02
WaitroseSupermarket51.5732-0.7752972018-05-16 00:12:37
Village HallCommunity Centre51.6578-1.006962018-05-13 22:17:59
The Half MoonPub51.6524-1.036172018-05-13 22:17:58
SuperdrugPharmacy51.7478-0.9782552018-05-13 16:07:13
BootsPharmacy51.7475-0.9788012018-05-13 16:07:13
MartinsConvenience51.7474-0.978672018-05-13 16:07:13
Buddie's Sandwich BarFast Food51.7486-0.9798412018-05-13 16:07:13
PrezzoRestaurant51.747-0.9770162018-05-13 16:07:13
Costa CoffeeCafe51.7478-0.9791942018-05-13 16:07:13
The ThatchPub51.7491-0.9815332018-05-13 16:07:12
BPFuel51.7431-0.9702482018-05-13 16:07:12
Saint Teresa'sPlace Of Worship51.7257-0.8317522018-05-06 01:05:47

Update "beigetable" from Overpass API